Terminal Aerodrome Forecast
Issued by NWS

Current Version | Previous Version | Text Only | Print | Product List | Glossary On
Versions: 1 2 3 4 5 6 7 8 9 10 11 12
301
FTUS44 KEPZ 162339
TAFLRU
TAF
KLRU 162339Z 1700/1724 27008KT P6SM FEW100
     FM170900 32006KT P6SM FEW140 SCT250
     FM171700 26007KT P6SM FEW100 SCT200=

USA.gov is the U.S. government's official web portal to all federal, state and local government web resources and services.